sensor_id;sensor_type;location;lat;lon;timestamp;P1;durP1;ratioP1;P2;durP2;ratioP2
42094;SDS011;27753;55.724;37.612;2023-05-07T00:00:20;7.72;;;5.15;;
42094;SDS011;27753;55.724;37.612;2023-05-07T00:02:46;6.72;;;4.95;;
42094;SDS011;27753;55.724;37.612;2023-05-07T00:05:12;7.15;;;4.68;;
42094;SDS011;27753;55.724;37.612;2023-05-07T00:07:38;7.95;;;4.50;;
42094;SDS011;27753;55.724;37.612;2023-05-07T00:10:05;8.38;;;6.05;;
42094;SDS011;27753;55.724;37.612;2023-05-07T00:12:35;6.65;;;5.00;;
42094;SDS011;27753;55.724;37.612;2023-05-07T00:15:04;7.38;;;4.70;;
42094;SDS011;27753;55.724;37.612;2023-05-07T00:17:30;7.47;;;4.45;;
42094;SDS011;27753;55.724;37.612;2023-05-07T00:19:58;10.77;;;5.18;;
42094;SDS011;27753;55.724;37.612;2023-05-07T00:22:24;8.10;;;5.05;;
42094;SDS011;27753;55.724;37.612;2023-05-07T00:24:49;8.60;;;5.38;;
42094;SDS011;27753;55.724;37.612;2023-05-07T00:27:15;6.85;;;4.53;;
42094;SDS011;27753;55.724;37.612;2023-05-07T00:29:41;9.55;;;5.28;;
42094;SDS011;27753;55.724;37.612;2023-05-07T00:32:07;7.93;;;5.22;;
42094;SDS011;27753;55.724;37.612;2023-05-07T00:34:33;7.47;;;4.50;;
42094;SDS011;27753;55.724;37.612;2023-05-07T00:37:00;8.57;;;4.57;;
42094;SDS011;27753;55.724;37.612;2023-05-07T00:39:26;8.90;;;5.45;;
42094;SDS011;27753;55.724;37.612;2023-05-07T00:41:52;6.25;;;4.85;;
42094;SDS011;27753;55.724;37.612;2023-05-07T00:44:18;7.38;;;5.35;;
42094;SDS011;27753;55.724;37.612;2023-05-07T00:46:44;7.70;;;5.15;;
42094;SDS011;27753;55.724;37.612;2023-05-07T00:49:13;7.22;;;5.05;;
42094;SDS011;27753;55.724;37.612;2023-05-07T00:51:39;6.68;;;4.85;;
42094;SDS011;27753;55.724;37.612;2023-05-07T00:54:05;8.40;;;4.65;;
42094;SDS011;27753;55.724;37.612;2023-05-07T00:56:31;7.45;;;5.35;;
42094;SDS011;27753;55.724;37.612;2023-05-07T00:58:57;8.23;;;4.25;;
42094;SDS011;27753;55.724;37.612;2023-05-07T01:01:24;7.22;;;4.93;;
42094;SDS011;27753;55.724;37.612;2023-05-07T01:03:51;6.72;;;4.53;;
42094;SDS011;27753;55.724;37.612;2023-05-07T01:06:17;4.30;;;3.85;;
42094;SDS011;27753;55.724;37.612;2023-05-07T01:08:44;8.07;;;4.87;;
42094;SDS011;27753;55.724;37.612;2023-05-07T01:11:10;6.68;;;4.60;;
42094;SDS011;27753;55.724;37.612;2023-05-07T01:13:37;4.97;;;4.18;;
42094;SDS011;27753;55.724;37.612;2023-05-07T01:16:04;7.90;;;5.22;;
42094;SDS011;27753;55.724;37.612;2023-05-07T01:18:30;8.98;;;4.72;;
42094;SDS011;27753;55.724;37.612;2023-05-07T01:20:56;6.70;;;5.47;;
42094;SDS011;27753;55.724;37.612;2023-05-07T01:23:24;10.68;;;6.05;;
42094;SDS011;27753;55.724;37.612;2023-05-07T01:25:52;7.15;;;5.60;;
42094;SDS011;27753;55.724;37.612;2023-05-07T01:28:19;9.37;;;5.53;;
42094;SDS011;27753;55.724;37.612;2023-05-07T01:30:52;8.20;;;5.68;;
42094;SDS011;27753;55.724;37.612;2023-05-07T01:33:21;13.73;;;6.45;;
42094;SDS011;27753;55.724;37.612;2023-05-07T01:35:49;7.03;;;5.72;;
42094;SDS011;27753;55.724;37.612;2023-05-07T01:38:18;8.50;;;6.03;;
42094;SDS011;27753;55.724;37.612;2023-05-07T01:40:45;9.02;;;5.28;;
42094;SDS011;27753;55.724;37.612;2023-05-07T01:43:12;12.13;;;5.95;;
42094;SDS011;27753;55.724;37.612;2023-05-07T01:45:38;7.13;;;5.22;;
42094;SDS011;27753;55.724;37.612;2023-05-07T01:48:06;7.72;;;6.03;;
42094;SDS011;27753;55.724;37.612;2023-05-07T01:50:33;7.50;;;5.72;;
42094;SDS011;27753;55.724;37.612;2023-05-07T01:53:00;8.20;;;6.20;;
42094;SDS011;27753;55.724;37.612;2023-05-07T01:55:27;5.55;;;4.18;;
42094;SDS011;27753;55.724;37.612;2023-05-07T01:57:53;9.48;;;5.38;;
42094;SDS011;27753;55.724;37.612;2023-05-07T02:00:19;10.20;;;5.95;;
42094;SDS011;27753;55.724;37.612;2023-05-07T02:02:45;7.28;;;4.88;;
42094;SDS011;27753;55.724;37.612;2023-05-07T02:05:11;8.75;;;5.68;;
42094;SDS011;27753;55.724;37.612;2023-05-07T02:07:37;7.32;;;5.65;;
42094;SDS011;27753;55.724;37.612;2023-05-07T02:10:03;9.73;;;6.35;;
42094;SDS011;27753;55.724;37.612;2023-05-07T02:12:30;8.77;;;5.93;;
42094;SDS011;27753;55.724;37.612;2023-05-07T02:14:55;11.40;;;6.68;;
42094;SDS011;27753;55.724;37.612;2023-05-07T02:17:21;10.35;;;6.35;;
42094;SDS011;27753;55.724;37.612;2023-05-07T02:19:47;10.95;;;6.72;;
42094;SDS011;27753;55.724;37.612;2023-05-07T02:22:13;12.15;;;6.50;;
42094;SDS011;27753;55.724;37.612;2023-05-07T02:24:39;9.68;;;6.72;;
42094;SDS011;27753;55.724;37.612;2023-05-07T02:27:05;7.63;;;5.80;;
42094;SDS011;27753;55.724;37.612;2023-05-07T02:29:30;10.52;;;5.97;;
42094;SDS011;27753;55.724;37.612;2023-05-07T02:31:56;12.38;;;4.88;;
42094;SDS011;27753;55.724;37.612;2023-05-07T02:34:22;10.27;;;5.25;;
42094;SDS011;27753;55.724;37.612;2023-05-07T02:36:48;7.45;;;5.28;;
42094;SDS011;27753;55.724;37.612;2023-05-07T02:39:14;6.70;;;4.93;;
42094;SDS011;27753;55.724;37.612;2023-05-07T02:41:40;10.95;;;6.20;;
42094;SDS011;27753;55.724;37.612;2023-05-07T02:44:06;8.32;;;5.60;;
42094;SDS011;27753;55.724;37.612;2023-05-07T02:46:32;10.63;;;5.88;;
42094;SDS011;27753;55.724;37.612;2023-05-07T02:48:58;10.68;;;5.82;;
42094;SDS011;27753;55.724;37.612;2023-05-07T02:51:25;9.40;;;5.82;;
42094;SDS011;27753;55.724;37.612;2023-05-07T02:53:51;9.85;;;5.45;;
42094;SDS011;27753;55.724;37.612;2023-05-07T02:56:17;8.25;;;5.50;;
42094;SDS011;27753;55.724;37.612;2023-05-07T02:58:43;8.57;;;5.22;;
42094;SDS011;27753;55.724;37.612;2023-05-07T03:01:09;12.23;;;7.03;;
42094;SDS011;27753;55.724;37.612;2023-05-07T03:03:35;9.48;;;6.05;;
42094;SDS011;27753;55.724;37.612;2023-05-07T03:06:01;9.40;;;6.40;;
42094;SDS011;27753;55.724;37.612;2023-05-07T03:08:27;8.85;;;6.07;;
42094;SDS011;27753;55.724;37.612;2023-05-07T03:10:53;8.23;;;5.72;;
42094;SDS011;27753;55.724;37.612;2023-05-07T03:13:19;7.03;;;6.10;;
42094;SDS011;27753;55.724;37.612;2023-05-07T03:15:45;9.43;;;5.45;;
42094;SDS011;27753;55.724;37.612;2023-05-07T03:18:11;13.65;;;7.20;;
42094;SDS011;27753;55.724;37.612;2023-05-07T03:20:37;9.07;;;5.82;;
42094;SDS011;27753;55.724;37.612;2023-05-07T03:23:02;9.15;;;7.43;;
42094;SDS011;27753;55.724;37.612;2023-05-07T03:25:28;8.65;;;6.72;;
42094;SDS011;27753;55.724;37.612;2023-05-07T03:27:57;6.63;;;5.45;;
42094;SDS011;27753;55.724;37.612;2023-05-07T03:30:23;7.95;;;5.65;;
42094;SDS011;27753;55.724;37.612;2023-05-07T03:32:49;6.70;;;5.45;;
42094;SDS011;27753;55.724;37.612;2023-05-07T03:35:15;9.68;;;7.07;;
42094;SDS011;27753;55.724;37.612;2023-05-07T03:37:41;8.10;;;6.70;;
42094;SDS011;27753;55.724;37.612;2023-05-07T03:40:07;7.97;;;5.63;;
42094;SDS011;27753;55.724;37.612;2023-05-07T03:42:35;8.05;;;5.65;;
42094;SDS011;27753;55.724;37.612;2023-05-07T03:45:01;7.90;;;5.60;;
42094;SDS011;27753;55.724;37.612;2023-05-07T03:47:27;6.07;;;4.85;;
42094;SDS011;27753;55.724;37.612;2023-05-07T03:49:53;8.50;;;5.60;;
42094;SDS011;27753;55.724;37.612;2023-05-07T03:52:20;8.27;;;5.35;;
42094;SDS011;27753;55.724;37.612;2023-05-07T03:54:49;8.90;;;5.40;;
42094;SDS011;27753;55.724;37.612;2023-05-07T03:57:15;7.50;;;4.32;;
42094;SDS011;27753;55.724;37.612;2023-05-07T03:59:41;7.43;;;4.32;;
42094;SDS011;27753;55.724;37.612;2023-05-07T04:02:07;12.18;;;4.88;;
42094;SDS011;27753;55.724;37.612;2023-05-07T04:04:33;7.15;;;4.85;;
42094;SDS011;27753;55.724;37.612;2023-05-07T04:06:58;6.97;;;4.97;;
42094;SDS011;27753;55.724;37.612;2023-05-07T04:09:25;6.53;;;4.23;;
42094;SDS011;27753;55.724;37.612;2023-05-07T04:11:51;6.25;;;3.85;;
42094;SDS011;27753;55.724;37.612;2023-05-07T04:14:17;7.97;;;4.65;;
42094;SDS011;27753;55.724;37.612;2023-05-07T04:16:43;7.20;;;4.13;;
42094;SDS011;27753;55.724;37.612;2023-05-07T04:19:08;5.95;;;4.25;;
42094;SDS011;27753;55.724;37.612;2023-05-07T04:21:34;8.88;;;5.47;;
42094;SDS011;27753;55.724;37.612;2023-05-07T04:24:00;6.30;;;3.92;;
42094;SDS011;27753;55.724;37.612;2023-05-07T04:26:28;6.45;;;4.30;;
42094;SDS011;27753;55.724;37.612;2023-05-07T04:28:54;5.47;;;3.70;;
42094;SDS011;27753;55.724;37.612;2023-05-07T04:31:20;5.63;;;3.63;;
42094;SDS011;27753;55.724;37.612;2023-05-07T04:33:46;5.93;;;3.63;;
42094;SDS011;27753;55.724;37.612;2023-05-07T04:36:12;8.07;;;4.40;;
42094;SDS011;27753;55.724;37.612;2023-05-07T04:38:37;5.72;;;4.15;;
42094;SDS011;27753;55.724;37.612;2023-05-07T04:41:04;7.03;;;3.35;;
42094;SDS011;27753;55.724;37.612;2023-05-07T04:43:31;5.93;;;3.70;;
42094;SDS011;27753;55.724;37.612;2023-05-07T04:45:57;4.20;;;2.88;;
42094;SDS011;27753;55.724;37.612;2023-05-07T04:48:23;8.52;;;3.53;;
42094;SDS011;27753;55.724;37.612;2023-05-07T04:50:49;5.70;;;3.85;;
42094;SDS011;27753;55.724;37.612;2023-05-07T04:53:16;8.02;;;3.63;;
42094;SDS011;27753;55.724;37.612;2023-05-07T04:55:42;6.72;;;4.30;;
42094;SDS011;27753;55.724;37.612;2023-05-07T04:58:09;5.05;;;3.50;;
42094;SDS011;27753;55.724;37.612;2023-05-07T05:00:34;5.07;;;3.50;;
42094;SDS011;27753;55.724;37.612;2023-05-07T05:03:00;4.95;;;3.63;;
42094;SDS011;27753;55.724;37.612;2023-05-07T05:05:26;7.18;;;4.18;;
42094;SDS011;27753;55.724;37.612;2023-05-07T05:07:52;3.95;;;3.45;;
42094;SDS011;27753;55.724;37.612;2023-05-07T05:10:18;6.47;;;3.67;;
42094;SDS011;27753;55.724;37.612;2023-05-07T05:12:44;4.93;;;3.47;;
42094;SDS011;27753;55.724;37.612;2023-05-07T05:15:11;6.07;;;3.42;;
42094;SDS011;27753;55.724;37.612;2023-05-07T05:17:38;4.88;;;3.42;;
42094;SDS011;27753;55.724;37.612;2023-05-07T05:20:04;7.30;;;3.88;;
42094;SDS011;27753;55.724;37.612;2023-05-07T05:22:31;3.93;;;3.53;;
42094;SDS011;27753;55.724;37.612;2023-05-07T05:24:57;4.60;;;3.58;;
42094;SDS011;27753;55.724;37.612;2023-05-07T05:27:23;3.67;;;2.72;;
42094;SDS011;27753;55.724;37.612;2023-05-07T05:29:49;3.47;;;2.83;;
42094;SDS011;27753;55.724;37.612;2023-05-07T05:32:15;3.80;;;2.67;;
42094;SDS011;27753;55.724;37.612;2023-05-07T05:34:41;4.28;;;2.85;;
42094;SDS011;27753;55.724;37.612;2023-05-07T05:37:06;3.38;;;2.97;;
42094;SDS011;27753;55.724;37.612;2023-05-07T05:39:32;4.95;;;2.78;;
42094;SDS011;27753;55.724;37.612;2023-05-07T05:41:58;4.82;;;3.10;;
42094;SDS011;27753;55.724;37.612;2023-05-07T05:44:24;3.28;;;2.10;;
42094;SDS011;27753;55.724;37.612;2023-05-07T05:46:50;3.65;;;2.42;;
42094;SDS011;27753;55.724;37.612;2023-05-07T05:49:17;3.83;;;2.25;;
42094;SDS011;27753;55.724;37.612;2023-05-07T05:51:43;3.47;;;2.25;;
42094;SDS011;27753;55.724;37.612;2023-05-07T05:54:08;4.22;;;2.85;;
42094;SDS011;27753;55.724;37.612;2023-05-07T05:56:34;3.60;;;2.47;;
42094;SDS011;27753;55.724;37.612;2023-05-07T05:59:01;3.70;;;2.30;;
42094;SDS011;27753;55.724;37.612;2023-05-07T06:01:27;3.45;;;2.40;;
42094;SDS011;27753;55.724;37.612;2023-05-07T06:03:54;3.38;;;2.60;;
42094;SDS011;27753;55.724;37.612;2023-05-07T06:06:21;7.30;;;2.67;;
42094;SDS011;27753;55.724;37.612;2023-05-07T06:08:47;4.32;;;3.30;;
42094;SDS011;27753;55.724;37.612;2023-05-07T06:11:13;5.22;;;3.65;;
42094;SDS011;27753;55.724;37.612;2023-05-07T06:13:38;4.03;;;2.47;;
42094;SDS011;27753;55.724;37.612;2023-05-07T06:16:04;3.67;;;2.30;;
42094;SDS011;27753;55.724;37.612;2023-05-07T06:18:31;5.75;;;2.78;;
42094;SDS011;27753;55.724;37.612;2023-05-07T06:20:57;4.10;;;2.70;;
42094;SDS011;27753;55.724;37.612;2023-05-07T06:23:22;4.38;;;2.65;;
42094;SDS011;27753;55.724;37.612;2023-05-07T06:25:49;4.40;;;2.75;;
42094;SDS011;27753;55.724;37.612;2023-05-07T06:28:15;4.00;;;2.40;;
42094;SDS011;27753;55.724;37.612;2023-05-07T06:30:41;3.80;;;2.35;;
42094;SDS011;27753;55.724;37.612;2023-05-07T06:33:07;5.25;;;2.70;;
42094;SDS011;27753;55.724;37.612;2023-05-07T06:35:33;3.78;;;2.67;;
42094;SDS011;27753;55.724;37.612;2023-05-07T06:37:59;4.45;;;2.60;;
42094;SDS011;27753;55.724;37.612;2023-05-07T06:40:25;3.22;;;2.42;;
42094;SDS011;27753;55.724;37.612;2023-05-07T06:42:51;2.88;;;2.55;;
42094;SDS011;27753;55.724;37.612;2023-05-07T06:45:17;3.88;;;2.22;;
42094;SDS011;27753;55.724;37.612;2023-05-07T06:47:44;2.63;;;2.43;;
42094;SDS011;27753;55.724;37.612;2023-05-07T06:50:10;2.58;;;2.20;;
42094;SDS011;27753;55.724;37.612;2023-05-07T06:52:36;3.45;;;2.30;;
42094;SDS011;27753;55.724;37.612;2023-05-07T06:55:02;3.42;;;2.20;;
42094;SDS011;27753;55.724;37.612;2023-05-07T06:57:28;4.20;;;2.30;;
42094;SDS011;27753;55.724;37.612;2023-05-07T06:59:54;3.72;;;1.92;;
42094;SDS011;27753;55.724;37.612;2023-05-07T07:02:19;4.10;;;2.50;;
42094;SDS011;27753;55.724;37.612;2023-05-07T07:04:45;3.45;;;2.47;;
42094;SDS011;27753;55.724;37.612;2023-05-07T07:07:11;2.95;;;1.95;;
42094;SDS011;27753;55.724;37.612;2023-05-07T07:09:37;3.13;;;2.00;;
42094;SDS011;27753;55.724;37.612;2023-05-07T07:12:03;5.90;;;2.58;;
42094;SDS011;27753;55.724;37.612;2023-05-07T07:14:29;3.63;;;2.13;;
42094;SDS011;27753;55.724;37.612;2023-05-07T07:16:55;2.90;;;2.50;;
42094;SDS011;27753;55.724;37.612;2023-05-07T07:19:22;3.97;;;1.90;;
42094;SDS011;27753;55.724;37.612;2023-05-07T07:21:48;3.22;;;2.15;;
42094;SDS011;27753;55.724;37.612;2023-05-07T07:24:14;3.72;;;1.90;;
42094;SDS011;27753;55.724;37.612;2023-05-07T07:26:46;3.38;;;1.90;;
42094;SDS011;27753;55.724;37.612;2023-05-07T07:29:12;1.98;;;1.58;;
42094;SDS011;27753;55.724;37.612;2023-05-07T07:31:38;4.32;;;2.03;;
42094;SDS011;27753;55.724;37.612;2023-05-07T07:34:04;4.72;;;2.28;;
42094;SDS011;27753;55.724;37.612;2023-05-07T07:36:30;7.35;;;2.47;;
42094;SDS011;27753;55.724;37.612;2023-05-07T07:38:56;2.88;;;1.98;;
42094;SDS011;27753;55.724;37.612;2023-05-07T07:41:22;2.42;;;1.70;;
42094;SDS011;27753;55.724;37.612;2023-05-07T07:43:48;6.10;;;1.75;;
42094;SDS011;27753;55.724;37.612;2023-05-07T07:46:13;6.70;;;2.30;;
42094;SDS011;27753;55.724;37.612;2023-05-07T07:48:39;2.78;;;1.63;;
42094;SDS011;27753;55.724;37.612;2023-05-07T07:51:05;5.30;;;2.47;;
42094;SDS011;27753;55.724;37.612;2023-05-07T07:53:31;2.67;;;1.70;;
42094;SDS011;27753;55.724;37.612;2023-05-07T07:55:57;3.65;;;1.95;;
42094;SDS011;27753;55.724;37.612;2023-05-07T07:58:23;3.40;;;2.13;;
42094;SDS011;27753;55.724;37.612;2023-05-07T08:00:49;5.80;;;1.73;;
42094;SDS011;27753;55.724;37.612;2023-05-07T08:03:16;2.65;;;1.90;;
42094;SDS011;27753;55.724;37.612;2023-05-07T08:05:44;4.28;;;2.17;;
42094;SDS011;27753;55.724;37.612;2023-05-07T08:08:10;2.88;;;1.40;;
42094;SDS011;27753;55.724;37.612;2023-05-07T08:10:36;2.00;;;1.58;;
42094;SDS011;27753;55.724;37.612;2023-05-07T08:15:30;2.60;;;1.70;;
42094;SDS011;27753;55.724;37.612;2023-05-07T08:17:57;2.08;;;1.60;;
42094;SDS011;27753;55.724;37.612;2023-05-07T08:20:25;1.92;;;1.42;;
42094;SDS011;27753;55.724;37.612;2023-05-07T08:22:51;3.80;;;1.90;;
42094;SDS011;27753;55.724;37.612;2023-05-07T08:25:17;4.80;;;1.90;;
42094;SDS011;27753;55.724;37.612;2023-05-07T08:27:43;1.90;;;1.70;;
42094;SDS011;27753;55.724;37.612;2023-05-07T08:30:10;3.77;;;2.00;;
42094;SDS011;27753;55.724;37.612;2023-05-07T08:32:36;2.22;;;1.60;;
42094;SDS011;27753;55.724;37.612;2023-05-07T08:35:02;6.97;;;1.90;;
42094;SDS011;27753;55.724;37.612;2023-05-07T08:37:28;2.78;;;1.80;;
42094;SDS011;27753;55.724;37.612;2023-05-07T08:39:57;4.78;;;2.17;;
42094;SDS011;27753;55.724;37.612;2023-05-07T08:42:23;5.47;;;2.05;;
42094;SDS011;27753;55.724;37.612;2023-05-07T08:44:52;3.05;;;1.77;;
42094;SDS011;27753;55.724;37.612;2023-05-07T08:47:22;3.85;;;1.40;;
42094;SDS011;27753;55.724;37.612;2023-05-07T08:49:54;4.85;;;2.40;;
42094;SDS011;27753;55.724;37.612;2023-05-07T08:52:20;2.03;;;1.40;;
42094;SDS011;27753;55.724;37.612;2023-05-07T08:54:46;3.50;;;1.80;;
42094;SDS011;27753;55.724;37.612;2023-05-07T08:57:12;2.55;;;1.67;;
42094;SDS011;27753;55.724;37.612;2023-05-07T08:59:39;6.57;;;1.77;;
42094;SDS011;27753;55.724;37.612;2023-05-07T09:02:06;3.08;;;1.58;;
42094;SDS011;27753;55.724;37.612;2023-05-07T09:04:34;3.63;;;1.60;;
42094;SDS011;27753;55.724;37.612;2023-05-07T09:07:00;2.80;;;2.30;;
42094;SDS011;27753;55.724;37.612;2023-05-07T09:09:32;1.65;;;1.45;;
42094;SDS011;27753;55.724;37.612;2023-05-07T09:11:58;3.85;;;1.38;;
42094;SDS011;27753;55.724;37.612;2023-05-07T09:14:25;2.40;;;1.77;;
42094;SDS011;27753;55.724;37.612;2023-05-07T09:16:54;5.00;;;1.88;;
42094;SDS011;27753;55.724;37.612;2023-05-07T09:19:23;6.53;;;1.55;;
42094;SDS011;27753;55.724;37.612;2023-05-07T09:21:50;1.92;;;1.35;;
42094;SDS011;27753;55.724;37.612;2023-05-07T09:24:26;3.38;;;1.42;;
42094;SDS011;27753;55.724;37.612;2023-05-07T09:26:57;4.45;;;1.60;;
42094;SDS011;27753;55.724;37.612;2023-05-07T09:29:24;3.28;;;1.50;;
42094;SDS011;27753;55.724;37.612;2023-05-07T09:31:50;2.70;;;1.45;;
42094;SDS011;27753;55.724;37.612;2023-05-07T09:34:16;2.33;;;1.65;;
42094;SDS011;27753;55.724;37.612;2023-05-07T09:36:42;3.08;;;2.20;;
42094;SDS011;27753;55.724;37.612;2023-05-07T09:39:08;5.25;;;2.45;;
42094;SDS011;27753;55.724;37.612;2023-05-07T09:41:42;3.50;;;2.10;;
42094;SDS011;27753;55.724;37.612;2023-05-07T09:44:11;3.20;;;1.85;;
42094;SDS011;27753;55.724;37.612;2023-05-07T09:46:39;2.55;;;1.65;;
42094;SDS011;27753;55.724;37.612;2023-05-07T09:49:08;5.80;;;1.98;;
42094;SDS011;27753;55.724;37.612;2023-05-07T09:51:45;2.75;;;1.50;;
42094;SDS011;27753;55.724;37.612;2023-05-07T09:54:15;4.78;;;2.03;;
42094;SDS011;27753;55.724;37.612;2023-05-07T09:56:45;2.95;;;2.00;;
42094;SDS011;27753;55.724;37.612;2023-05-07T09:59:14;2.92;;;1.73;;
42094;SDS011;27753;55.724;37.612;2023-05-07T10:01:42;2.58;;;1.52;;
42094;SDS011;27753;55.724;37.612;2023-05-07T10:06:35;5.88;;;1.38;;
42094;SDS011;27753;55.724;37.612;2023-05-07T10:09:02;3.77;;;1.50;;
42094;SDS011;27753;55.724;37.612;2023-05-07T10:11:30;1.60;;;1.48;;
42094;SDS011;27753;55.724;37.612;2023-05-07T10:14:01;1.52;;;1.27;;
42094;SDS011;27753;55.724;37.612;2023-05-07T10:16:31;1.65;;;1.27;;
42094;SDS011;27753;55.724;37.612;2023-05-07T10:19:04;4.57;;;2.08;;
42094;SDS011;27753;55.724;37.612;2023-05-07T10:21:34;2.83;;;1.30;;
42094;SDS011;27753;55.724;37.612;2023-05-07T10:26:39;4.75;;;1.85;;
42094;SDS011;27753;55.724;37.612;2023-05-07T10:29:18;3.60;;;2.90;;
42094;SDS011;27753;55.724;37.612;2023-05-07T10:34:39;3.03;;;1.40;;
42094;SDS011;27753;55.724;37.612;2023-05-07T10:37:08;4.20;;;1.88;;
42094;SDS011;27753;55.724;37.612;2023-05-07T10:39:36;5.57;;;2.05;;
42094;SDS011;27753;55.724;37.612;2023-05-07T10:42:12;3.67;;;2.17;;
42094;SDS011;27753;55.724;37.612;2023-05-07T10:44:39;5.63;;;1.90;;
42094;SDS011;27753;55.724;37.612;2023-05-07T10:47:09;4.32;;;1.70;;
42094;SDS011;27753;55.724;37.612;2023-05-07T10:50:21;3.15;;;2.17;;
42094;SDS011;27753;55.724;37.612;2023-05-07T10:52:31;3.10;;;1.63;;
42094;SDS011;27753;55.724;37.612;2023-05-07T10:58:10;5.65;;;2.10;;
42094;SDS011;27753;55.724;37.612;2023-05-07T11:00:49;2.25;;;1.42;;
42094;SDS011;27753;55.724;37.612;2023-05-07T11:03:16;3.08;;;1.75;;
42094;SDS011;27753;55.724;37.612;2023-05-07T11:05:42;3.22;;;2.30;;
42094;SDS011;27753;55.724;37.612;2023-05-07T11:08:08;2.67;;;1.63;;
42094;SDS011;27753;55.724;37.612;2023-05-07T11:16:17;2.72;;;1.77;;
42094;SDS011;27753;55.724;37.612;2023-05-07T11:18:48;4.20;;;1.75;;
42094;SDS011;27753;55.724;37.612;2023-05-07T11:24:05;2.30;;;1.50;;
42094;SDS011;27753;55.724;37.612;2023-05-07T11:26:41;2.88;;;1.92;;
42094;SDS011;27753;55.724;37.612;2023-05-07T11:29:19;9.18;;;2.10;;
42094;SDS011;27753;55.724;37.612;2023-05-07T11:31:49;3.50;;;1.67;;
42094;SDS011;27753;55.724;37.612;2023-05-07T11:34:20;6.10;;;2.20;;
42094;SDS011;27753;55.724;37.612;2023-05-07T11:36:47;4.68;;;2.00;;
42094;SDS011;27753;55.724;37.612;2023-05-07T11:39:30;2.95;;;1.88;;
42094;SDS011;27753;55.724;37.612;2023-05-07T11:41:58;3.53;;;2.13;;
42094;SDS011;27753;55.724;37.612;2023-05-07T11:44:24;6.70;;;2.58;;
42094;SDS011;27753;55.724;37.612;2023-05-07T11:46:50;4.95;;;2.28;;
42094;SDS011;27753;55.724;37.612;2023-05-07T11:49:17;5.53;;;2.47;;
42094;SDS011;27753;55.724;37.612;2023-05-07T11:51:44;4.05;;;1.70;;
42094;SDS011;27753;55.724;37.612;2023-05-07T11:54:11;3.38;;;2.13;;
42094;SDS011;27753;55.724;37.612;2023-05-07T11:56:41;3.92;;;2.08;;
42094;SDS011;27753;55.724;37.612;2023-05-07T11:59:07;4.72;;;1.83;;
42094;SDS011;27753;55.724;37.612;2023-05-07T12:01:34;3.45;;;2.25;;
42094;SDS011;27753;55.724;37.612;2023-05-07T12:04:02;2.53;;;1.73;;
42094;SDS011;27753;55.724;37.612;2023-05-07T12:06:30;6.55;;;2.08;;
42094;SDS011;27753;55.724;37.612;2023-05-07T12:08:56;3.13;;;2.20;;
42094;SDS011;27753;55.724;37.612;2023-05-07T12:11:23;3.85;;;1.80;;
42094;SDS011;27753;55.724;37.612;2023-05-07T12:13:50;2.95;;;1.92;;
42094;SDS011;27753;55.724;37.612;2023-05-07T12:16:16;4.75;;;1.85;;
42094;SDS011;27753;55.724;37.612;2023-05-07T12:18:43;2.70;;;1.80;;
42094;SDS011;27753;55.724;37.612;2023-05-07T12:21:12;1.77;;;1.20;;
42094;SDS011;27753;55.724;37.612;2023-05-07T12:23:39;2.55;;;1.90;;
42094;SDS011;27753;55.724;37.612;2023-05-07T12:26:05;3.13;;;1.80;;
42094;SDS011;27753;55.724;37.612;2023-05-07T12:28:36;6.18;;;2.55;;
42094;SDS011;27753;55.724;37.612;2023-05-07T12:31:06;5.50;;;2.40;;
42094;SDS011;27753;55.724;37.612;2023-05-07T12:33:35;3.78;;;1.90;;
42094;SDS011;27753;55.724;37.612;2023-05-07T12:36:05;5.25;;;2.15;;
42094;SDS011;27753;55.724;37.612;2023-05-07T12:38:35;3.10;;;1.98;;
42094;SDS011;27753;55.724;37.612;2023-05-07T12:41:02;2.53;;;1.70;;
42094;SDS011;27753;55.724;37.612;2023-05-07T12:43:29;2.85;;;2.10;;
42094;SDS011;27753;55.724;37.612;2023-05-07T12:45:56;2.65;;;1.90;;
42094;SDS011;27753;55.724;37.612;2023-05-07T12:48:26;3.00;;;1.98;;
42094;SDS011;27753;55.724;37.612;2023-05-07T12:50:54;3.42;;;2.05;;
42094;SDS011;27753;55.724;37.612;2023-05-07T12:53:22;3.30;;;2.05;;
42094;SDS011;27753;55.724;37.612;2023-05-07T12:55:51;3.45;;;1.35;;
42094;SDS011;27753;55.724;37.612;2023-05-07T12:58:19;5.20;;;1.70;;
42094;SDS011;27753;55.724;37.612;2023-05-07T13:00:48;3.70;;;1.40;;
42094;SDS011;27753;55.724;37.612;2023-05-07T13:03:31;4.50;;;2.13;;
42094;SDS011;27753;55.724;37.612;2023-05-07T13:05:58;6.68;;;1.75;;
42094;SDS011;27753;55.724;37.612;2023-05-07T13:10:55;3.17;;;1.98;;
42094;SDS011;27753;55.724;37.612;2023-05-07T13:13:22;4.20;;;2.10;;
42094;SDS011;27753;55.724;37.612;2023-05-07T13:15:48;4.60;;;2.85;;
42094;SDS011;27753;55.724;37.612;2023-05-07T13:18:17;9.48;;;2.92;;
42094;SDS011;27753;55.724;37.612;2023-05-07T13:20:43;5.30;;;2.17;;
42094;SDS011;27753;55.724;37.612;2023-05-07T13:23:09;4.75;;;2.22;;
42094;SDS011;27753;55.724;37.612;2023-05-07T13:25:35;3.28;;;1.63;;
42094;SDS011;27753;55.724;37.612;2023-05-07T13:28:01;5.95;;;2.10;;
42094;SDS011;27753;55.724;37.612;2023-05-07T13:30:28;2.40;;;1.67;;
42094;SDS011;27753;55.724;37.612;2023-05-07T13:32:57;2.90;;;1.75;;
42094;SDS011;27753;55.724;37.612;2023-05-07T13:35:23;4.90;;;2.15;;
42094;SDS011;27753;55.724;37.612;2023-05-07T13:37:49;6.60;;;2.22;;
42094;SDS011;27753;55.724;37.612;2023-05-07T13:40:15;3.88;;;2.67;;
42094;SDS011;27753;55.724;37.612;2023-05-07T13:42:41;2.88;;;2.08;;
42094;SDS011;27753;55.724;37.612;2023-05-07T13:45:07;5.10;;;2.42;;
42094;SDS011;27753;55.724;37.612;2023-05-07T13:47:34;4.95;;;2.30;;
42094;SDS011;27753;55.724;37.612;2023-05-07T13:50:00;3.13;;;2.10;;
42094;SDS011;27753;55.724;37.612;2023-05-07T13:52:26;3.08;;;2.13;;
42094;SDS011;27753;55.724;37.612;2023-05-07T13:54:52;3.72;;;2.40;;
42094;SDS011;27753;55.724;37.612;2023-05-07T13:57:18;6.65;;;2.28;;
42094;SDS011;27753;55.724;37.612;2023-05-07T13:59:44;4.97;;;2.08;;
42094;SDS011;27753;55.724;37.612;2023-05-07T14:02:09;2.78;;;1.92;;
42094;SDS011;27753;55.724;37.612;2023-05-07T14:04:36;4.80;;;2.30;;
42094;SDS011;27753;55.724;37.612;2023-05-07T14:07:02;4.70;;;2.65;;
42094;SDS011;27753;55.724;37.612;2023-05-07T14:09:28;4.50;;;2.80;;
42094;SDS011;27753;55.724;37.612;2023-05-07T14:11:54;5.22;;;2.53;;
42094;SDS011;27753;55.724;37.612;2023-05-07T14:14:20;3.97;;;2.08;;
42094;SDS011;27753;55.724;37.612;2023-05-07T14:16:46;4.70;;;2.30;;
42094;SDS011;27753;55.724;37.612;2023-05-07T14:19:12;4.78;;;2.35;;
42094;SDS011;27753;55.724;37.612;2023-05-07T14:21:38;2.03;;;1.52;;
42094;SDS011;27753;55.724;37.612;2023-05-07T14:24:06;4.65;;;2.42;;
42094;SDS011;27753;55.724;37.612;2023-05-07T14:26:33;4.55;;;2.00;;
42094;SDS011;27753;55.724;37.612;2023-05-07T14:28:59;4.25;;;2.40;;
42094;SDS011;27753;55.724;37.612;2023-05-07T14:31:25;2.40;;;1.98;;
42094;SDS011;27753;55.724;37.612;2023-05-07T14:33:51;3.00;;;1.80;;
42094;SDS011;27753;55.724;37.612;2023-05-07T14:36:18;1.73;;;1.43;;
42094;SDS011;27753;55.724;37.612;2023-05-07T14:38:46;5.63;;;2.50;;
42094;SDS011;27753;55.724;37.612;2023-05-07T14:41:12;4.22;;;1.90;;
42094;SDS011;27753;55.724;37.612;2023-05-07T14:43:38;5.60;;;2.40;;
42094;SDS011;27753;55.724;37.612;2023-05-07T14:46:04;5.22;;;2.35;;
42094;SDS011;27753;55.724;37.612;2023-05-07T14:48:30;5.20;;;1.70;;
42094;SDS011;27753;55.724;37.612;2023-05-07T14:50:56;6.22;;;2.35;;
42094;SDS011;27753;55.724;37.612;2023-05-07T14:53:22;3.47;;;2.35;;
42094;SDS011;27753;55.724;37.612;2023-05-07T14:55:48;4.93;;;2.67;;